Time;durP1;ratioP1;P1;durP2;ratioP2;P2;SDS_P1;SDS_P2;PMS_P1;PMS_P2;Temp;Humidity;BMP_temperature;BMP_pressure;BME280_temperature;BME280_humidity;BME280_pressure;Samples;Min_cycle;Max_cycle;Signal;HPM_P1;HPM_P2
2021/05/25 00:03:07;;;;;;;6.13;2.97;;;;;;;15.72;60.12;100249.20;5078093;56;1138830;-78
2021/05/25 00:08:12;;;;;;;5.87;2.73;;;;;;;15.70;60.25;100251.67;5068377;56;1138909;-78
2021/05/25 00:13:18;;;;;;;9.08;2.87;;;;;;;15.69;60.10;100257.51;5077983;56;1139047;-81
2021/05/25 00:18:24;;;;;;;6.65;2.52;;;;;;;15.69;60.29;100262.00;5078182;56;1138829;-76
2021/05/25 00:23:29;;;;;;;5.80;2.10;;;;;;;15.67;60.26;100269.31;5078030;56;1138893;-79
2021/05/25 00:28:35;;;;;;;3.33;2.20;;;;;;;15.62;60.32;100256.45;5078135;56;1138389;-79
2021/05/25 00:33:41;;;;;;;4.13;2.23;;;;;;;15.59;60.53;100251.42;5077780;56;1138625;-80
2021/05/25 00:38:47;;;;;;;4.23;2.23;;;;;;;15.55;60.81;100255.42;5077685;56;1138544;-78
2021/05/25 00:43:54;;;;;;;4.20;2.30;;;;;;;15.49;61.10;100236.86;5078094;56;1138827;-76
2021/05/25 00:49:00;;;;;;;2.50;1.70;;;;;;;15.44;61.13;100232.48;5077873;56;1138696;-77
2021/05/25 00:54:07;;;;;;;5.73;1.70;;;;;;;15.42;61.57;100231.00;5077743;56;1138552;-77
2021/05/25 00:59:13;;;;;;;6.00;1.80;;;;;;;15.39;61.97;100224.64;5078064;56;1138802;-79
2021/05/25 01:04:19;;;;;;;2.10;1.40;;;;;;;15.38;62.37;100220.30;5077622;56;1138491;-78
2021/05/25 01:09:27;;;;;;;1.57;1.20;;;;;;;15.41;62.40;100209.33;5078013;56;1138427;-78
2021/05/25 01:14:39;;;;;;;7.70;2.08;;;;;;;15.43;63.29;100206.82;5077720;56;1138498;-76
2021/05/25 01:19:41;;;;;;;8.27;1.57;;;;;;;15.44;62.85;100191.67;5077547;56;1138598;-77
2021/05/25 01:24:47;;;;;;;2.73;1.70;;;;;;;15.44;63.05;100188.51;5077437;56;1138425;-76
2021/05/25 01:29:53;;;;;;;4.37;1.90;;;;;;;15.42;63.70;100189.69;5077631;56;1138665;-78
2021/05/25 01:34:59;;;;;;;2.77;1.50;;;;;;;15.40;63.39;100179.67;5077568;56;1138367;-78
2021/05/25 01:40:07;;;;;;;4.70;1.47;;;;;;;15.37;63.59;100188.81;5077822;56;1138562;-77
2021/05/25 01:45:20;;;;;;;0.98;0.95;;;;;;;15.32;63.52;100183.12;5088216;56;1138403;-77
2021/05/25 01:50:28;;;;;;;1.65;1.37;;;;;;;15.32;63.88;100164.95;5065248;56;1138467;-78
2021/05/25 01:55:44;;;;;;;2.10;0.90;;;;;;;15.34;64.14;100166.48;5077760;56;1138403;-77
2021/05/25 02:00:55;;;;;;;5.23;0.90;;;;;;;15.35;64.25;100169.48;5077750;56;1138486;-76
2021/05/25 02:06:01;;;;;;;1.77;1.00;;;;;;;15.32;64.60;100160.96;5076877;56;1138437;-78
2021/05/25 02:11:08;;;;;;;1.60;0.70;;;;;;;15.31;64.57;100156.13;5044847;57;1138459;-76
2021/05/25 02:16:17;;;;;;;4.70;1.20;;;;;;;15.27;64.75;100160.13;5046955;57;1138526;-78
2021/05/25 02:21:23;;;;;;;1.10;1.00;;;;;;;15.24;65.03;100147.11;5031977;57;1138422;-76
2021/05/25 02:26:29;;;;;;;3.27;2.65;;;;;;;15.22;65.53;100153.09;5045673;57;1139126;-76
2021/05/25 02:31:34;;;;;;;1.37;1.20;;;;;;;15.16;66.37;100140.39;5045806;57;1139054;-78
2021/05/25 02:36:40;;;;;;;2.93;1.67;;;;;;;15.16;66.37;100140.39;5045502;57;1139083;-77
2021/05/25 02:41:47;;;;;;;3.77;1.83;;;;;;;15.12;66.80;100137.73;5045503;57;1139092;-75
2021/05/25 02:46:53;;;;;;;5.17;1.60;;;;;;;15.05;67.06;100137.50;5045405;57;1138904;-78
2021/05/25 02:51:59;;;;;;;4.50;1.47;;;;;;;14.97;68.18;100128.11;5045632;57;1138919;-74
2021/05/25 02:57:05;;;;;;;2.60;1.43;;;;;;;14.95;68.42;100129.29;5045304;57;1139011;-77
2021/05/25 03:02:11;;;;;;;1.53;1.43;;;;;;;14.88;68.80;100128.23;5045308;57;1138867;-77
2021/05/25 03:07:17;;;;;;;3.03;1.63;;;;;;;14.81;68.94;100123.20;5045464;57;1138800;-78
2021/05/25 03:12:23;;;;;;;1.92;1.27;;;;;;;14.74;71.29;100120.31;5076269;56;1138948;-77
2021/05/25 03:17:29;;;;;;;3.52;1.70;;;;;;;14.60;70.98;100119.55;5078077;56;1138873;-77
2021/05/25 03:22:34;;;;;;;2.93;1.80;;;;;;;14.54;72.07;100126.80;5078403;56;1138893;-84
2021/05/25 03:27:42;;;;;;;3.23;1.80;;;;;;;14.48;71.71;100123.44;5078104;56;1138881;-81
2021/05/25 03:32:49;;;;;;;1.70;1.60;;;;;;;14.45;71.53;100121.08;5078202;56;1139124;-77
2021/05/25 03:37:55;;;;;;;3.40;1.60;;;;;;;14.39;72.02;100116.67;5078448;56;1139091;-80
2021/05/25 03:43:00;;;;;;;4.47;2.20;;;;;;;14.36;72.48;100115.64;4999686;57;1139138;-78
2021/05/25 03:48:07;;;;;;;3.33;2.20;;;;;;;14.34;74.20;100126.96;4996474;57;1138867;-82
2021/05/25 03:53:12;;;;;;;2.20;2.00;;;;;;;14.32;73.09;100134.75;4996212;57;1138993;-77
2021/05/25 04:03:42;;;;;;;2.57;1.90;;;;;;;14.23;73.36;100124.50;4995875;57;1138440;-80
2021/05/25 04:08:49;;;;;;;2.83;2.03;;;;;;;14.25;73.79;100123.03;4996082;57;1138438;-77
2021/05/25 04:13:55;;;;;;;2.63;2.20;;;;;;;14.23;73.63;100136.97;4967530;57;1138355;-80
2021/05/25 04:19:02;;;;;;;2.07;1.80;;;;;;;14.19;73.75;100123.66;4964723;57;1138387;-78
2021/05/25 04:24:08;;;;;;;3.33;2.20;;;;;;;14.24;74.30;100124.02;4964485;57;1138516;-83
2021/05/25 04:29:14;;;;;;;3.02;2.33;;;;;;;14.28;74.72;100123.56;4963931;57;1138751;-77
2021/05/25 04:34:20;;;;;;;3.73;1.90;;;;;;;14.31;74.11;100129.08;4964626;57;1138782;-84
2021/05/25 04:39:26;;;;;;;4.53;1.72;;;;;;;14.26;74.30;100136.17;4964432;57;1138724;-80
2021/05/25 04:44:32;;;;;;;3.83;1.90;;;;;;;14.22;74.10;100135.30;4964334;58;1138645;-82
2021/05/25 04:49:39;;;;;;;3.30;1.70;;;;;;;14.22;74.50;100129.97;4964008;57;1138542;-78
2021/05/25 04:54:45;;;;;;;2.97;2.10;;;;;;;14.15;74.56;100131.09;4964208;57;1138610;-80
2021/05/25 04:59:51;;;;;;;3.30;2.90;;;;;;;14.11;74.69;100125.72;4964090;58;1138400;-82
2021/05/25 05:04:57;;;;;;;3.37;3.07;;;;;;;14.17;75.31;100124.30;4964148;58;1138321;-81
2021/05/25 05:10:05;;;;;;;21.40;6.67;;;;;;;14.26;75.04;100128.69;4963937;57;1138432;-75
2021/05/25 05:15:18;;;;;;;3.73;2.80;;;;;;;14.32;74.90;100138.24;4990103;57;1140439;-80
2021/05/25 05:20:20;;;;;;;3.23;2.80;;;;;;;14.27;74.71;100131.20;4995693;57;1138589;-79
2021/05/25 05:25:26;;;;;;;3.17;2.60;;;;;;;14.23;74.70;100130.32;4996075;57;1138397;-77
2021/05/25 05:30:33;;;;;;;3.70;2.30;;;;;;;14.28;74.97;100140.02;4995973;57;1138439;-82
2021/05/25 05:35:38;;;;;;;4.13;1.90;;;;;;;14.17;75.04;100141.09;4995764;57;1138397;-80
2021/05/25 05:40:44;;;;;;;3.67;2.17;;;;;;;14.13;75.36;100141.04;4995309;57;1138501;-81
2021/05/25 05:45:50;;;;;;;2.33;2.17;;;;;;;14.07;75.55;100140.30;4995496;57;1138367;-78
2021/05/25 05:50:57;;;;;;;3.60;2.00;;;;;;;14.04;75.64;100144.61;4996117;57;1139204;-74
2021/05/25 05:56:02;;;;;;;3.43;2.13;;;;;;;14.04;75.96;100149.94;4953163;57;1138892;-74
2021/05/25 06:01:09;;;;;;;2.57;2.10;;;;;;;13.93;76.46;100148.80;4908565;59;1138984;-78
2021/05/25 06:06:16;;;;;;;2.50;2.00;;;;;;;13.93;76.30;100146.97;4909039;59;1138921;-79
2021/05/25 06:11:22;;;;;;;4.17;2.12;;;;;;;13.94;76.96;100148.64;4911317;58;1139139;-80
2021/05/25 06:16:31;;;;;;;3.75;2.70;;;;;;;13.97;76.74;100129.74;4957602;57;1138992;-80
2021/05/25 06:21:35;;;;;;;3.22;2.50;;;;;;;14.03;77.13;100126.49;4915842;57;1139337;-78
2021/05/25 06:26:41;;;;;;;2.67;2.47;;;;;;;14.12;76.79;100123.41;4989562;57;1139038;-78
2021/05/25 06:31:48;;;;;;;2.43;2.30;;;;;;;14.44;77.09;100120.25;4884979;58;1138914;-80
2021/05/25 06:36:53;;;;;;;3.57;2.60;;;;;;;14.77;76.49;100120.84;5021502;57;1138894;-81
2021/05/25 06:41:59;;;;;;;5.80;2.60;;;;;;;14.90;75.64;100120.43;5038015;56;1138998;-73
2021/05/25 06:47:05;;;;;;;20.63;3.00;;;;;;;15.03;75.65;100124.84;5033124;57;1139433;-77
2021/05/25 06:52:11;;;;;;;5.30;2.53;;;;;;;15.27;75.24;100120.66;5058571;57;1141046;-79
2021/05/25 06:57:17;;;;;;;4.00;1.40;;;;;;;15.42;74.76;100125.73;5068055;57;1138821;-80
2021/05/25 07:02:23;;;;;;;4.03;3.37;;;;;;;15.67;74.55;100126.19;5062904;57;1138758;-79
2021/05/25 07:07:29;;;;;;;3.15;1.10;;;;;;;15.82;73.88;100127.23;5069923;57;1138681;-74
2021/05/25 07:12:34;;;;;;;5.17;2.23;;;;;;;15.74;71.04;100124.53;5070812;57;1138604;-73
2021/05/25 07:17:42;;;;;;;2.90;1.53;;;;;;;15.85;71.17;100127.91;5032775;57;1138975;-75
2021/05/25 07:22:51;;;;;;;15.47;1.80;;;;;;;15.92;70.86;100128.91;4954625;58;1138827;-82
2021/05/25 07:27:57;;;;;;;3.90;1.40;;;;;;;16.03;68.58;100125.97;4929625;58;1140796;-79
2021/05/25 07:33:03;;;;;;;5.23;2.57;;;;;;;16.01;69.37;100118.63;4947578;57;1138719;-80
2021/05/25 07:38:10;;;;;;;2.00;1.80;;;;;;;16.14;69.35;100133.64;4884804;58;1139277;-76
2021/05/25 07:43:15;;;;;;;6.63;2.07;;;;;;;16.03;68.91;100149.97;4945439;57;1138973;-78
2021/05/25 07:48:23;;;;;;;5.23;1.97;;;;;;;15.82;69.37;100149.90;5033692;56;1138943;-79
2021/05/25 07:53:28;;;;;;;2.50;1.50;;;;;;;15.67;70.25;100158.67;4933273;57;1139022;-81
2021/05/25 07:58:35;;;;;;;3.72;1.85;;;;;;;15.49;70.39;100151.56;4933079;58;1138971;-81
2021/05/25 08:03:40;;;;;;;5.43;1.60;;;;;;;15.43;70.37;100139.36;4932587;58;1139138;-79
2021/05/25 08:08:46;;;;;;;2.47;1.30;;;;;;;15.37;70.80;100145.34;4932784;58;1138864;-79
2021/05/25 08:13:52;;;;;;;5.07;1.47;;;;;;;15.33;70.91;100154.64;4932774;58;1139447;-79
2021/05/25 08:19:13;;;;;;;4.70;1.40;;;;;;;15.32;71.18;100152.47;4997778;56;1139160;-79
2021/05/25 08:24:08;;;;;;;4.60;0.80;;;;;;;15.29;71.28;100151.95;5003598;56;1139227;-76
2021/05/25 08:29:14;;;;;;;2.63;1.27;;;;;;;15.09;71.12;100154.02;5015022;57;1139340;-78
2021/05/25 08:34:21;;;;;;;0.93;0.78;;;;;;;14.66;73.19;100171.68;5007611;57;1138941;-78
2021/05/25 08:39:27;;;;;;;5.45;1.07;;;;;;;14.31;75.46;100175.63;5000895;57;1138969;-81
2021/05/25 08:44:33;;;;;;;0.65;0.60;;;;;;;14.22;75.10;100196.47;5014074;57;1138927;-79
2021/05/25 08:49:41;;;;;;;1.40;0.40;;;;;;;14.43;72.87;100225.84;5023954;56;1138948;-77
2021/05/25 08:54:47;;;;;;;2.53;0.93;;;;;;;14.43;72.87;100225.84;5056445;56;1138443;-80
2021/05/25 08:59:53;;;;;;;2.13;0.90;;;;;;;14.52;70.34;100231.23;5076112;57;1138941;-76
2021/05/25 09:05:12;;;;;;;2.60;1.30;;;;;;;14.62;70.96;100228.02;5057735;56;1138704;-77
2021/05/25 09:10:37;;;;;;;2.97;0.60;;;;;;;14.77;71.57;100237.98;5102004;57;1138388;-74
2021/05/25 09:15:50;;;;;;;1.83;1.40;;;;;;;14.84;68.89;100233.36;5112102;56;1138913;-82
2021/05/25 09:20:59;;;;;;;1.63;1.00;;;;;;;14.80;68.34;100231.52;5013311;56;1138532;-74
2021/05/25 09:26:15;;;;;;;1.20;1.00;;;;;;;14.84;67.98;100245.34;5062696;56;1138444;-78
2021/05/25 09:31:43;;;;;;;2.20;1.18;;;;;;;14.77;67.19;100262.44;5093671;56;1139877;-76
2021/05/25 09:37:14;;;;;;;1.32;1.22;;;;;;;14.69;66.76;100276.98;5049478;56;1138461;-75
2021/05/25 09:42:17;;;;;;;1.10;1.00;;;;;;;14.62;67.79;100270.12;4973571;58;1138584;-79
2021/05/25 09:47:40;;;;;;;3.10;1.43;;;;;;;14.58;68.37;100282.53;4978263;58;1138509;-76
2021/05/25 09:53:08;;;;;;;0.65;0.60;;;;;;;14.55;68.91;100284.16;4997706;58;1139139;-78
2021/05/25 09:58:15;;;;;;;0.47;0.47;;;;;;;14.48;69.26;100293.25;4997869;57;1138981;-75
2021/05/25 10:03:26;;;;;;;1.03;0.60;;;;;;;14.28;68.21;100302.29;4998739;57;1138819;-79
2021/05/25 10:08:31;;;;;;;0.95;0.60;;;;;;;14.03;69.19;100309.13;4976675;57;1139234;-73
2021/05/25 10:13:37;;;;;;;0.40;0.40;;;;;;;13.84;69.70;100316.68;4980485;57;1139004;-79
2021/05/25 10:23:50;;;;;;;8.97;1.10;;;;;;;13.57;69.52;100340.05;5095719;56;1138933;-79
2021/05/25 10:28:58;;;;;;;1.67;0.97;;;;;;;13.42;69.08;100348.59;5012664;57;1138576;-79
2021/05/25 10:34:23;;;;;;;2.00;0.80;;;;;;;13.31;70.08;100349.56;5017910;56;1138413;-81
2021/05/25 10:39:43;;;;;;;0.70;0.70;;;;;;;13.24;70.31;100339.16;5015396;57;1138743;-78
2021/05/25 10:44:57;;;;;;;0.90;0.90;;;;;;;13.18;71.08;100336.57;5020947;56;1139527;-82
2021/05/25 10:50:15;;;;;;;2.27;1.00;;;;;;;13.17;71.88;100326.08;5013256;57;1138608;-77
2021/05/25 10:55:36;;;;;;;1.50;1.10;;;;;;;13.20;72.23;100327.98;5070377;57;1139006;-79
2021/05/25 11:00:42;;;;;;;0.80;0.80;;;;;;;13.26;72.30;100329.24;5066939;57;1138699;-79
2021/05/25 11:06:00;;;;;;;1.80;1.20;;;;;;;13.33;72.25;100341.80;5089148;56;1139041;-82
2021/05/25 11:11:17;;;;;;;2.87;1.83;;;;;;;13.34;71.73;100327.55;5031242;57;1138689;-78
2021/05/25 11:16:39;;;;;;;4.55;1.20;;;;;;;13.39;71.23;100323.15;4996034;56;1139081;-82
2021/05/25 11:27:08;;;;;;;7.57;2.37;;;;;;;13.53;68.55;100312.08;5000088;57;1139075;-80
2021/05/25 11:32:17;;;;;;;2.67;1.43;;;;;;;13.57;69.73;100328.09;5001248;57;1138586;-77
2021/05/25 11:37:24;;;;;;;3.47;1.30;;;;;;;13.67;68.49;100365.27;5125696;56;1138705;-81
2021/05/25 11:42:33;;;;;;;2.80;0.83;;;;;;;13.67;68.21;100364.77;5053226;56;1139103;-77
2021/05/25 11:47:40;;;;;;;2.08;0.80;;;;;;;13.62;67.70;100377.64;5006581;57;1138875;-79
2021/05/25 11:52:52;;;;;;;0.72;0.68;;;;;;;13.64;66.59;100374.84;5031570;56;1138764;-74
2021/05/25 11:58:00;;;;;;;1.70;0.73;;;;;;;13.70;67.86;100376.95;5047293;56;1138713;-78
2021/05/25 12:03:12;;;;;;;2.07;0.73;;;;;;;13.91;68.04;100371.42;4943949;58;1138699;-75
2021/05/25 12:08:18;;;;;;;2.27;0.90;;;;;;;14.05;67.43;100339.08;4937284;57;1138616;-77
2021/05/25 12:13:26;;;;;;;2.05;0.90;;;;;;;14.27;67.75;100326.72;5019063;56;1138561;-74
2021/05/25 12:18:37;;;;;;;4.37;1.03;;;;;;;14.61;67.99;100324.33;5073137;56;1139201;-82
2021/05/25 12:23:46;;;;;;;3.07;1.03;;;;;;;14.76;65.86;100327.32;4996014;57;1138962;-81
2021/05/25 12:28:57;;;;;;;3.90;1.00;;;;;;;14.87;66.43;100325.77;4999098;57;1139000;-78
2021/05/25 12:34:02;;;;;;;6.63;1.00;;;;;;;15.09;67.36;100320.00;5042420;57;1139027;-77
2021/05/25 12:39:25;;;;;;;2.30;1.33;;;;;;;15.42;65.33;100309.61;5027672;56;1138725;-76
2021/05/25 12:44:32;;;;;;;4.83;1.20;;;;;;;15.43;64.35;100328.58;5009083;57;1139143;-78
2021/05/25 12:49:51;;;;;;;2.64;0.58;;;;;;;15.32;63.44;100349.66;5053176;56;1138903;-75
2021/05/25 12:55:15;;;;;;;0.68;0.65;;;;;;;15.17;62.00;100331.20;5064506;56;1138639;-77
2021/05/25 13:00:34;;;;;;;0.70;0.70;;;;;;;14.93;61.31;100342.48;5119381;56;1138542;-79
2021/05/25 13:05:43;;;;;;;1.90;0.80;;;;;;;15.23;61.45;100345.26;5114083;56;1138588;-80
2021/05/25 13:10:52;;;;;;;1.17;1.07;;;;;;;15.48;60.26;100343.62;5122753;56;1139008;-80
2021/05/25 13:15:57;;;;;;;1.45;0.80;;;;;;;15.55;60.02;100328.73;5019020;56;1138601;-74
2021/05/25 13:21:03;;;;;;;0.90;0.90;;;;;;;15.56;59.44;100326.41;5093551;57;1138791;-82
2021/05/25 13:26:17;;;;;;;2.57;0.73;;;;;;;15.53;59.44;100346.67;5022643;56;1138636;-78
2021/05/25 13:31:29;;;;;;;1.15;0.50;;;;;;;15.64;58.29;100345.11;5034866;56;1138502;-79
2021/05/25 13:36:36;;;;;;;1.27;0.72;;;;;;;15.89;55.10;100334.63;5109745;56;1138779;-77
2021/05/25 13:41:44;;;;;;;1.47;0.83;;;;;;;15.98;55.80;100347.00;5055936;56;1138495;-77
2021/05/25 13:46:50;;;;;;;0.80;0.80;;;;;;;16.01;55.31;100332.86;5049814;56;1138771;-78
2021/05/25 13:51:56;;;;;;;2.10;0.70;;;;;;;16.16;54.20;100322.42;5087984;56;1138932;-77
2021/05/25 13:57:02;;;;;;;0.87;0.70;;;;;;;16.26;53.96;100335.63;5069142;56;1138499;-76
2021/05/25 14:02:10;;;;;;;1.40;0.60;;;;;;;16.33;53.30;100350.03;5080776;56;1138675;-75
2021/05/25 14:07:17;;;;;;;1.03;0.67;;;;;;;16.30;50.15;100348.52;5170793;56;1138491;-77
2021/05/25 14:12:23;;;;;;;8.00;1.00;;;;;;;16.30;48.00;100346.34;5146475;56;1138734;-82
2021/05/25 14:17:30;;;;;;;1.07;0.90;;;;;;;16.26;48.62;100327.13;5151630;56;1139067;-79
2021/05/25 14:22:36;;;;;;;0.67;0.40;;;;;;;16.28;48.83;100343.83;5104950;56;1139666;-76
2021/05/25 14:27:43;;;;;;;4.20;0.40;;;;;;;16.25;47.36;100351.31;5079468;56;1138604;-78
2021/05/25 14:32:49;;;;;;;1.85;0.80;;;;;;;16.05;47.96;100345.36;5085276;56;1138856;-75
2021/05/25 14:37:55;;;;;;;4.12;0.90;;;;;;;15.99;48.66;100351.34;5127044;56;1139315;-79
2021/05/25 14:43:02;;;;;;;0.95;0.70;;;;;;;15.89;48.94;100347.96;5066662;56;1138637;-78
2021/05/25 14:48:08;;;;;;;0.30;0.30;;;;;;;15.83;50.39;100348.92;5100795;56;1139388;-80
2021/05/25 14:58:22;;;;;;;3.90;0.77;;;;;;;15.74;50.00;100352.50;5135896;56;1138909;-78
2021/05/25 15:03:33;;;;;;;4.35;2.25;;;;;;;15.77;48.85;100349.53;5096706;56;1139008;-75
2021/05/25 15:08:41;;;;;;;1.93;0.83;;;;;;;15.82;49.95;100356.58;5091534;56;1139024;-77
2021/05/25 15:13:46;;;;;;;1.20;0.73;;;;;;;15.71;47.99;100344.00;5100934;56;1138715;-84
2021/05/25 15:18:53;;;;;;;11.20;8.60;;;;;;;15.62;49.21;100364.42;5084618;57;1138669;-78
2021/05/25 15:23:58;;;;;;;9.77;5.80;;;;;;;15.56;49.97;100366.39;5080404;57;1140650;-88
2021/05/25 15:29:04;;;;;;;16.95;8.13;;;;;;;15.63;50.04;100361.26;5088839;57;1138580;-80
2021/05/25 15:34:11;;;;;;;15.83;5.77;;;;;;;15.74;48.58;100360.50;5092230;57;1140763;-79
2021/05/25 15:39:17;;;;;;;13.90;7.20;;;;;;;15.77;47.03;100355.36;5079606;57;1140709;-77
2021/05/25 15:44:22;;;;;;;4.07;2.73;;;;;;;15.78;47.69;100352.54;5084015;57;1140593;-85
2021/05/25 15:49:28;;;;;;;1.67;1.10;;;;;;;15.72;47.77;100342.52;5083220;56;1138422;-76
2021/05/25 15:54:35;;;;;;;3.07;2.83;;;;;;;15.70;48.43;100338.33;5106533;57;1138626;-73
2021/05/25 15:59:41;;;;;;;19.37;9.47;;;;;;;15.75;48.55;100334.67;5084078;57;1138690;-79
2021/05/25 16:04:47;;;;;;;14.87;6.90;;;;;;;15.69;47.95;100341.98;5152549;56;1141058;-75
2021/05/25 16:09:53;;;;;;;65.77;36.47;;;;;;;15.67;48.32;100331.97;5162669;56;1141269;-74
2021/05/25 16:15:01;;;;;;;108.55;55.90;;;;;;;15.69;48.66;100322.83;5170692;56;1143323;-77
2021/05/25 16:20:10;;;;;;;20.12;13.05;;;;;;;15.71;47.28;100313.34;5171372;56;1145459;-80
2021/05/25 16:25:18;;;;;;;16.77;13.87;;;;;;;15.71;47.79;100315.52;5174875;56;1142637;-76
2021/05/25 16:30:24;;;;;;;6.73;5.83;;;;;;;15.77;46.99;100307.36;5175335;56;1142624;-77
2021/05/25 16:35:30;;;;;;;3.33;1.37;;;;;;;15.86;46.66;100290.44;5174929;56;1138622;-78
2021/05/25 16:40:36;;;;;;;2.13;1.70;;;;;;;15.93;46.74;100298.62;5175344;56;1138951;-76
2021/05/25 16:45:42;;;;;;;1.53;1.20;;;;;;;15.94;45.81;100309.62;5175154;56;1138436;-79
2021/05/25 16:50:48;;;;;;;7.33;2.60;;;;;;;15.92;47.10;100311.12;5175544;56;1138590;-74
2021/05/25 16:56:00;;;;;;;2.10;1.23;;;;;;;15.96;47.74;100318.31;5175335;56;1138675;-76
2021/05/25 17:06:32;;;;;;;3.03;1.47;;;;;;;15.92;46.54;100317.78;5174852;56;1138678;-76
2021/05/25 17:21:59;;;;;;;1.95;1.30;;;;;;;15.87;45.88;100345.94;5162743;56;1138617;-83
2021/05/25 17:27:06;;;;;;;6.95;2.00;;;;;;;15.74;45.91;100353.84;5154904;56;1139059;-77
2021/05/25 17:32:13;;;;;;;5.23;0.90;;;;;;;15.71;46.98;100352.84;5155054;56;1139064;-77
2021/05/25 17:37:19;;;;;;;2.93;0.67;;;;;;;15.74;47.17;100345.00;5154591;56;1138912;-80
2021/05/25 17:42:24;;;;;;;6.87;1.00;;;;;;;15.67;46.48;100348.80;5155116;56;1138952;-78
2021/05/25 17:47:31;;;;;;;5.83;1.00;;;;;;;15.64;47.63;100338.45;5154698;56;1138965;-78
2021/05/25 17:52:38;;;;;;;4.33;1.20;;;;;;;15.59;46.88;100344.73;5154964;56;1139011;-76
2021/05/25 17:57:45;;;;;;;4.00;1.20;;;;;;;15.54;46.65;100342.17;5153619;56;1138924;-77
2021/05/25 18:02:51;;;;;;;1.87;1.57;;;;;;;15.46;47.47;100352.27;5154886;56;1139213;-75
2021/05/25 18:07:56;;;;;;;3.00;1.50;;;;;;;15.39;47.30;100356.55;5153918;56;1139081;-75
2021/05/25 18:13:02;;;;;;;11.08;1.82;;;;;;;15.21;47.76;100379.20;5154672;56;1139194;-82
2021/05/25 18:18:09;;;;;;;11.35;5.12;;;;;;;15.00;49.46;100356.84;5154594;56;1140994;-78
2021/05/25 18:23:17;;;;;;;1.27;0.90;;;;;;;14.86;50.75;100371.17;5166309;56;1141025;-78
2021/05/25 18:28:23;;;;;;;0.87;0.70;;;;;;;14.71;52.28;100362.86;5174927;56;1139123;-76
2021/05/25 18:33:34;;;;;;;10.97;4.73;;;;;;;14.53;52.60;100364.14;5175062;56;1139192;-81
2021/05/25 18:43:57;;;;;;;5.67;1.80;;;;;;;14.34;53.54;100380.20;5175902;56;1139194;-81
2021/05/25 18:49:03;;;;;;;9.73;3.83;;;;;;;14.19;53.96;100405.59;5175690;56;1138979;-73
2021/05/25 18:54:10;;;;;;;3.22;0.60;;;;;;;14.07;54.75;100416.87;5175970;56;1139240;-81
2021/05/25 19:04:30;;;;;;;4.07;0.73;;;;;;;13.68;56.23;100436.88;5172424;56;1139195;-79
2021/05/25 19:09:39;;;;;;;5.07;1.30;;;;;;;13.54;56.62;100441.30;5171378;56;1139058;-72
2021/05/25 19:14:44;;;;;;;10.33;3.77;;;;;;;13.44;57.31;100451.58;5142707;56;1139462;-76
2021/05/25 19:25:11;;;;;;;36.40;19.70;;;;;;;12.96;63.09;100452.30;5087222;57;1143377;-75
2021/05/25 19:30:18;;;;;;;6.17;1.63;;;;;;;12.84;63.38;100449.38;5083424;57;1142769;-79
2021/05/25 19:35:25;;;;;;;12.90;4.27;;;;;;;12.66;64.76;100453.19;5083707;57;1138546;-76
2021/05/25 19:40:32;;;;;;;21.27;4.60;;;;;;;12.56;64.31;100440.34;5082967;57;1140685;-76
2021/05/25 19:45:38;;;;;;;21.20;5.30;;;;;;;12.51;64.43;100430.16;5083173;57;1140911;-75
2021/05/25 19:50:44;;;;;;;3.20;2.23;;;;;;;12.53;64.01;100424.69;5083165;57;1140808;-78
2021/05/25 19:55:50;;;;;;;2.13;1.23;;;;;;;12.57;63.90;100431.42;5084901;57;1138912;-78
2021/05/25 20:00:56;;;;;;;3.80;2.63;;;;;;;12.61;63.84;100432.36;5112164;56;1138860;-79
2021/05/25 20:06:04;;;;;;;3.60;3.08;;;;;;;12.65;63.94;100445.72;5171328;56;1138917;-77
2021/05/25 20:11:10;;;;;;;8.68;3.37;;;;;;;12.59;63.61;100443.58;5171423;56;1138661;-77
2021/05/25 20:16:16;;;;;;;7.13;3.73;;;;;;;12.57;63.35;100448.66;5171715;56;1138840;-75
2021/05/25 20:21:22;;;;;;;7.00;2.47;;;;;;;12.50;62.97;100444.39;5170943;56;1138933;-79
2021/05/25 20:26:28;;;;;;;6.83;1.87;;;;;;;12.38;63.06;100456.04;5171386;56;1138482;-75
2021/05/25 20:31:34;;;;;;;7.77;2.00;;;;;;;12.18;63.45;100460.91;5171378;56;1138708;-74
2021/05/25 20:42:03;;;;;;;1.42;1.00;;;;;;;11.80;65.45;100456.17;5174442;56;1138547;-77
2021/05/25 20:47:10;;;;;;;2.37;1.30;;;;;;;11.70;65.19;100462.70;5175797;56;1138865;-76
2021/05/25 20:52:16;;;;;;;1.03;1.00;;;;;;;11.61;66.09;100472.72;5175582;56;1138626;-79
2021/05/25 20:57:22;;;;;;;1.93;0.93;;;;;;;11.48;65.82;100477.34;5175746;56;1138701;-76
2021/05/25 21:02:28;;;;;;;3.07;1.23;;;;;;;11.41;66.32;100479.67;5175453;56;1138556;-78
2021/05/25 21:07:34;;;;;;;1.87;1.17;;;;;;;11.33;66.14;100487.38;5175691;56;1138928;-75
2021/05/25 21:12:41;;;;;;;2.60;0.90;;;;;;;11.22;66.63;100481.64;5175480;56;1138999;-77
2021/05/25 21:17:46;;;;;;;1.03;0.70;;;;;;;11.19;66.47;100479.72;5175434;56;1138865;-77
2021/05/25 21:22:53;;;;;;;1.40;0.80;;;;;;;11.11;66.57;100485.65;5175329;56;1138883;-80
2021/05/25 21:27:59;;;;;;;2.77;0.83;;;;;;;11.08;66.33;100491.66;5176147;56;1138987;-74
2021/05/25 21:33:07;;;;;;;2.17;1.10;;;;;;;11.08;65.95;100489.02;5175826;56;1138912;-74
2021/05/25 21:38:12;;;;;;;6.90;1.87;;;;;;;11.06;66.20;100485.16;5175671;56;1138976;-76
2021/05/25 21:43:21;;;;;;;3.40;1.70;;;;;;;11.01;66.41;100490.45;5175780;56;1139297;-77
2021/05/25 21:48:27;;;;;;;3.37;2.30;;;;;;;11.00;66.63;100486.96;5175497;56;1139157;-77
2021/05/25 21:53:33;;;;;;;1.80;1.37;;;;;;;10.96;66.92;100496.13;5175434;56;1138954;-75
2021/05/25 21:58:39;;;;;;;10.93;1.40;;;;;;;10.91;66.81;100483.27;5175269;56;1139152;-77
2021/05/25 22:03:44;;;;;;;2.23;1.27;;;;;;;10.90;66.79;100484.70;5175362;56;1141696;-80
2021/05/25 22:08:51;;;;;;;3.27;1.23;;;;;;;10.88;66.49;100482.66;5175444;56;1139117;-75
2021/05/25 22:13:58;;;;;;;4.33;1.10;;;;;;;10.81;66.55;100484.96;5190714;56;1139230;-74
2021/05/25 22:19:04;;;;;;;4.90;1.30;;;;;;;10.77;66.71;100487.96;5160029;56;1139011;-79
2021/05/25 22:24:11;;;;;;;1.90;1.10;;;;;;;10.71;66.88;100487.11;5175671;56;1138902;-74
2021/05/25 22:29:17;;;;;;;4.57;1.60;;;;;;;10.57;67.38;100492.16;5179296;56;1139085;-73
2021/05/25 22:34:22;;;;;;;1.60;0.67;;;;;;;10.47;67.27;100495.17;5184893;56;1138980;-75
2021/05/25 22:39:29;;;;;;;9.27;1.70;;;;;;;10.39;67.77;100492.30;5184961;56;1139138;-78
2021/05/25 22:44:35;;;;;;;6.20;1.27;;;;;;;10.31;67.96;100486.73;5185240;56;1138927;-79
2021/05/25 22:49:41;;;;;;;2.57;0.93;;;;;;;10.29;68.20;100492.14;5185169;56;1138974;-76
2021/05/25 22:54:47;;;;;;;5.37;1.57;;;;;;;10.25;67.95;100485.39;5185278;56;1139422;-75
2021/05/25 22:59:53;;;;;;;1.47;0.70;;;;;;;10.23;68.09;100488.16;5185134;56;1139045;-79
2021/05/25 23:04:59;;;;;;;2.07;0.73;;;;;;;10.22;68.19;100494.91;5185407;56;1139134;-75
2021/05/25 23:10:08;;;;;;;1.02;0.65;;;;;;;10.15;68.65;100492.32;5185029;56;1139322;-71
2021/05/25 23:15:15;;;;;;;1.07;0.90;;;;;;;10.14;69.43;100497.23;5185153;56;1139134;-77
2021/05/25 23:20:21;;;;;;;0.62;0.60;;;;;;;10.11;69.33;100500.95;5185178;56;1139109;-73
2021/05/25 23:25:27;;;;;;;1.70;1.07;;;;;;;9.94;69.99;100493.45;5185227;56;1138647;-74
2021/05/25 23:30:33;;;;;;;2.47;0.70;;;;;;;9.94;69.99;100493.45;5181821;56;1136315;-75
2021/05/25 23:35:40;;;;;;;1.53;0.73;;;;;;;9.94;70.12;100497.41;5176263;56;1136241;-75
2021/05/25 23:40:46;;;;;;;4.03;1.60;;;;;;;9.90;70.61;100498.63;5176359;56;1136580;-76
2021/05/25 23:45:52;;;;;;;2.17;0.93;;;;;;;9.83;70.64;100496.07;5176072;56;1136518;-72
2021/05/25 23:50:58;;;;;;;4.70;1.10;;;;;;;9.80;70.91;100497.13;5145103;56;1136762;-74
2021/05/25 23:56:04;;;;;;;0.98;0.65;;;;;;;9.72;71.66;100498.67;5087873;56;1136543;-74
